Time;durP1;ratioP1;P1;durP2;ratioP2;P2;SDS_P1;SDS_P2;PMS_P1;PMS_P2;Temp;Humidity;BMP_temperature;BMP_pressure;BME280_temperature;BME280_humidity;BME280_pressure;Samples;Min_cycle;Max_cycle;Signal;HPM_P1;HPM_P2
2021/04/13 00:02:37;;;;;;;0.93;0.93;;;0.20;99.90;;;;;;5006478;28;20178;-79
2021/04/13 00:05:09;;;;;;;1.00;0.90;;;0.30;99.90;;;;;;5004139;28;20662;-80
2021/04/13 00:07:38;;;;;;;1.10;1.00;;;0.30;99.90;;;;;;5006238;28;20175;-81
2021/04/13 00:10:13;;;;;;;1.97;1.47;;;0.30;99.90;;;;;;5004861;28;20249;-80
2021/04/13 00:12:39;;;;;;;1.00;1.00;;;0.30;99.90;;;;;;5005731;28;20183;-80
2021/04/13 00:15:13;;;;;;;1.10;1.00;;;0.20;99.90;;;;;;5006835;28;20299;-80
2021/04/13 00:17:41;;;;;;;1.53;1.10;;;0.30;99.90;;;;;;5005677;28;20172;-80
2021/04/13 00:20:37;;;;;;;1.60;1.50;;;0.30;99.90;;;;;;5005367;28;20245;-80
2021/04/13 00:23:04;;;;;;;0.90;0.90;;;0.30;99.90;;;;;;5007231;28;20187;-81
2021/04/13 00:25:37;;;;;;;0.87;0.73;;;0.20;99.90;;;;;;5005900;28;20852;-80
2021/04/13 00:28:04;;;;;;;1.73;1.20;;;0.30;99.90;;;;;;5006499;28;20676;-80
2021/04/13 00:30:51;;;;;;;1.40;1.23;;;0.40;99.90;;;;;;5005711;28;20183;-80
2021/04/13 00:33:39;;;;;;;1.67;1.27;;;0.40;99.90;;;;;;5005613;28;20559;-81
2021/04/13 00:36:09;;;;;;;1.43;0.80;;;0.30;99.90;;;;;;5021595;28;20204;-80
2021/04/13 00:38:44;;;;;;;2.27;1.00;;;0.30;99.90;;;;;;5005842;28;20203;-79
2021/04/13 00:41:23;;;;;;;1.63;1.17;;;0.40;99.90;;;;;;5005719;28;20286;-79
2021/04/13 00:43:57;;;;;;;1.00;0.90;;;0.40;99.90;;;;;;5005984;28;20195;-79
2021/04/13 00:46:48;;;;;;;1.20;1.10;;;0.40;99.90;;;;;;5004280;28;20335;-79
2021/04/13 00:49:16;;;;;;;0.87;0.87;;;0.30;99.90;;;;;;5004733;28;20208;-80
2021/04/13 00:51:57;;;;;;;1.47;1.10;;;0.30;99.90;;;;;;5020507;28;20190;-79
2021/04/13 00:54:32;;;;;;;1.23;0.73;;;0.40;99.90;;;;;;5005379;28;20203;-80
2021/04/13 00:57:04;;;;;;;2.03;1.70;;;0.30;99.90;;;;;;5003723;28;20201;-78
2021/04/13 00:59:31;;;;;;;1.53;1.03;;;0.30;99.90;;;;;;5004025;28;20892;-80
2021/04/13 01:01:59;;;;;;;1.20;1.10;;;0.20;99.90;;;;;;5006816;28;20261;-80
2021/04/13 01:05:06;;;;;;;0.97;0.97;;;0.20;99.90;;;;;;5021374;28;20241;-79
2021/04/13 01:07:40;;;;;;;1.13;1.00;;;0.10;99.90;;;;;;4930409;28;20200;-79
2021/04/13 01:10:21;;;;;;;1.50;1.40;;;0.10;99.90;;;;;;5008975;28;20215;-78
2021/04/13 01:12:52;;;;;;;1.17;1.00;;;0.10;99.90;;;;;;5005981;28;20202;-79
2021/04/13 01:15:20;;;;;;;1.50;1.27;;;0.20;99.90;;;;;;5005672;28;20234;-79
2021/04/13 01:17:46;;;;;;;0.93;0.93;;;0.10;99.90;;;;;;5005769;28;20270;-79
2021/04/13 01:20:30;;;;;;;2.40;1.40;;;0.10;99.90;;;;;;5005041;28;20204;-80
2021/04/13 01:25:39;;;;;;;1.43;1.13;;;-0.10;99.90;;;;;;5006552;28;20702;-80
2021/04/13 01:28:18;;;;;;;1.03;0.93;;;-0.10;99.90;;;;;;5021875;28;20186;-79
2021/04/13 01:30:56;;;;;;;1.40;1.20;;;-0.10;99.90;;;;;;5005053;28;20186;-79
2021/04/13 01:33:23;;;;;;;2.73;1.53;;;-0.10;99.90;;;;;;5005217;28;20187;-80
2021/04/13 01:35:54;;;;;;;1.77;1.63;;;-0.10;99.90;;;;;;5004979;28;20227;-78
2021/04/13 01:38:28;;;;;;;3.47;1.40;;;-0.20;99.90;;;;;;5007073;28;20195;-80
2021/04/13 01:41:19;;;;;;;2.03;1.70;;;-0.20;99.90;;;;;;5006021;28;20229;-80
2021/04/13 01:43:48;;;;;;;2.10;1.60;;;-0.20;99.90;;;;;;5005982;28;20199;-80
2021/04/13 01:46:16;;;;;;;1.47;1.20;;;-0.10;99.90;;;;;;5020702;28;20188;-80
2021/04/13 01:48:43;;;;;;;1.60;1.50;;;-0.10;99.90;;;;;;5020025;28;20449;-79
2021/04/13 01:51:11;;;;;;;1.97;1.30;;;-0.10;99.90;;;;;;5004793;28;20183;-79
2021/04/13 01:53:41;;;;;;;1.67;1.53;;;-0.10;99.90;;;;;;5006563;28;20345;-79
2021/04/13 01:56:12;;;;;;;2.40;1.93;;;-0.10;99.90;;;;;;5020566;28;20213;-80
2021/04/13 01:58:44;;;;;;;3.47;2.37;;;0.00;99.90;;;;;;5004812;28;20199;-80
2021/04/13 02:01:29;;;;;;;1.97;1.77;;;0.00;99.90;;;;;;5020799;28;20757;-80
2021/04/13 02:04:13;;;;;;;1.97;1.80;;;0.00;99.90;;;;;;5020439;28;20187;-79
2021/04/13 02:07:02;;;;;;;3.20;2.43;;;0.00;99.90;;;;;;5003955;28;20212;-79
2021/04/13 02:12:08;;;;;;;2.07;1.67;;;0.10;99.90;;;;;;5045868;22;20185;-81
2021/04/13 02:14:39;;;;;;;3.27;2.03;;;0.20;99.90;;;;;;5058828;23;20238;-80
2021/04/13 02:17:10;;;;;;;2.10;1.87;;;0.10;99.90;;;;;;5005634;28;20780;-80
2021/04/13 02:19:37;;;;;;;1.90;1.80;;;0.00;99.90;;;;;;5005290;28;21082;-79
2021/04/13 02:22:07;;;;;;;2.40;1.87;;;0.00;99.90;;;;;;5005791;28;20259;-80
2021/04/13 02:24:33;;;;;;;1.83;1.40;;;0.00;99.90;;;;;;5004764;28;20704;-79
2021/04/13 02:27:04;;;;;;;1.47;1.37;;;0.00;99.90;;;;;;5005296;28;20194;-80
2021/04/13 02:29:39;;;;;;;3.63;1.77;;;0.00;99.90;;;;;;5005351;28;20624;-80
2021/04/13 02:32:31;;;;;;;2.10;1.90;;;0.00;99.90;;;;;;5004837;28;20221;-79
2021/04/13 02:35:04;;;;;;;2.17;1.90;;;0.00;99.90;;;;;;5004951;28;20291;-80
2021/04/13 02:37:44;;;;;;;2.37;2.03;;;0.00;99.90;;;;;;5005224;28;20863;-80
2021/04/13 02:40:51;;;;;;;1.67;1.37;;;0.00;99.90;;;;;;5003323;28;20724;-80
2021/04/13 02:43:28;;;;;;;3.33;2.57;;;0.00;99.90;;;;;;4974060;28;20250;-80
2021/04/13 02:45:57;;;;;;;3.23;1.77;;;0.20;99.90;;;;;;5003864;28;20179;-79
2021/04/13 02:48:32;;;;;;;3.43;1.73;;;0.30;99.90;;;;;;5018923;28;20218;-79
2021/04/13 02:51:07;;;;;;;2.23;1.93;;;0.40;99.90;;;;;;5001986;28;20205;-79
2021/04/13 02:53:42;;;;;;;2.03;1.90;;;0.40;99.90;;;;;;5003762;28;20183;-80
2021/04/13 02:56:13;;;;;;;3.30;1.37;;;0.30;99.90;;;;;;5018552;28;20710;-79
2021/04/13 02:58:46;;;;;;;1.93;1.47;;;0.20;99.90;;;;;;5002782;28;20765;-80
2021/04/13 03:01:13;;;;;;;2.40;1.83;;;0.10;99.90;;;;;;5004209;28;20665;-79
2021/04/13 03:03:43;;;;;;;4.53;2.20;;;0.00;99.90;;;;;;5007731;28;20196;-80
2021/04/13 03:06:08;;;;;;;2.97;2.57;;;0.00;99.90;;;;;;5007578;28;20194;-80
2021/04/13 03:08:37;;;;;;;2.83;1.70;;;0.10;99.90;;;;;;5007468;28;20207;-80
2021/04/13 03:11:14;;;;;;;2.07;1.87;;;0.10;99.90;;;;;;5006787;28;20187;-81
2021/04/13 03:13:42;;;;;;;2.30;1.57;;;0.20;99.90;;;;;;5023277;28;20187;-80
2021/04/13 03:16:10;;;;;;;2.47;2.17;;;0.30;99.90;;;;;;5006541;28;20223;-80
2021/04/13 03:18:44;;;;;;;2.20;1.70;;;0.30;99.90;;;;;;5023900;28;20200;-80
2021/04/13 03:21:30;;;;;;;2.70;2.00;;;0.30;99.90;;;;;;5008066;28;20215;-80
2021/04/13 03:24:01;;;;;;;2.23;1.80;;;0.40;99.90;;;;;;5007208;28;20217;-80
2021/04/13 03:26:32;;;;;;;2.03;1.83;;;0.40;99.90;;;;;;5006695;28;20275;-80
2021/04/13 03:29:05;;;;;;;2.87;2.10;;;0.40;99.90;;;;;;5006570;28;20198;-80
2021/04/13 03:31:34;;;;;;;2.83;2.33;;;0.50;99.90;;;;;;5006519;28;20194;-79
2021/04/13 03:34:02;;;;;;;4.23;1.83;;;0.60;99.90;;;;;;5007206;28;20187;-80
2021/04/13 03:36:29;;;;;;;2.60;2.13;;;0.60;99.90;;;;;;5006934;28;20180;-80
2021/04/13 03:39:24;;;;;;;3.53;2.03;;;0.50;99.90;;;;;;5005056;28;20199;-80
2021/04/13 03:41:50;;;;;;;7.80;2.40;;;0.60;99.90;;;;;;5003411;28;20179;-80
2021/04/13 03:44:18;;;;;;;2.30;1.70;;;0.50;99.90;;;;;;5003556;28;20196;-80
2021/04/13 03:46:45;;;;;;;2.50;2.00;;;0.60;99.90;;;;;;5003120;28;20187;-80
2021/04/13 03:49:23;;;;;;;2.77;1.73;;;0.60;99.90;;;;;;5003062;28;20246;-79
2021/04/13 03:51:53;;;;;;;1.93;1.63;;;0.60;99.90;;;;;;5003310;28;20210;-80
2021/04/13 03:54:26;;;;;;;3.43;1.80;;;0.60;99.90;;;;;;5003119;28;20265;-81
2021/04/13 03:56:52;;;;;;;6.60;2.13;;;0.60;99.90;;;;;;5004641;28;20176;-80
2021/04/13 03:59:25;;;;;;;2.93;1.80;;;0.60;99.90;;;;;;5003057;28;20238;-79
2021/04/13 04:01:51;;;;;;;2.60;1.70;;;0.50;99.90;;;;;;5004168;28;20182;-80
2021/04/13 04:04:38;;;;;;;2.93;2.23;;;0.50;99.90;;;;;;5002518;28;20196;-81
2021/04/13 04:07:29;;;;;;;1.83;1.30;;;0.60;99.90;;;;;;5003138;28;20195;-80
2021/04/13 04:09:54;;;;;;;2.10;1.47;;;0.50;99.90;;;;;;5002794;28;20199;-80
2021/04/13 04:12:29;;;;;;;2.67;2.20;;;0.50;99.90;;;;;;5019266;28;20214;-79
2021/04/13 04:15:01;;;;;;;2.43;1.70;;;0.60;99.90;;;;;;5003707;28;20302;-80
2021/04/13 04:17:32;;;;;;;2.10;1.70;;;0.60;99.90;;;;;;5003211;28;20456;-80
2021/04/13 04:20:02;;;;;;;5.00;3.00;;;0.60;99.90;;;;;;5004002;28;20688;-80
2021/04/13 04:22:29;;;;;;;1.40;1.20;;;0.70;99.90;;;;;;5002920;28;20554;-80
2021/04/13 04:25:10;;;;;;;1.93;1.53;;;0.80;99.90;;;;;;5002295;28;20191;-80
2021/04/13 04:27:37;;;;;;;2.10;1.80;;;0.80;99.90;;;;;;5004594;28;20179;-80
2021/04/13 04:30:23;;;;;;;2.67;1.73;;;0.90;99.90;;;;;;5002697;28;20813;-80
2021/04/13 04:32:49;;;;;;;2.07;1.57;;;1.10;99.90;;;;;;5019098;28;20186;-80
2021/04/13 04:35:37;;;;;;;5.40;2.30;;;1.20;99.90;;;;;;5002514;28;20212;-80
2021/04/13 04:38:41;;;;;;;3.03;2.03;;;1.30;99.90;;;;;;5004934;28;20245;-80
2021/04/13 04:41:10;;;;;;;2.53;1.50;;;1.40;99.90;;;;;;4976188;28;20184;-80
2021/04/13 04:43:54;;;;;;;2.43;2.00;;;1.40;99.90;;;;;;4970149;28;20704;-80
2021/04/13 04:46:50;;;;;;;1.00;0.90;;;1.30;99.90;;;;;;4988691;28;20191;-80
2021/04/13 04:49:18;;;;;;;2.10;1.60;;;1.40;99.90;;;;;;4993128;28;20771;-80
2021/04/13 04:51:51;;;;;;;2.37;2.17;;;1.50;99.90;;;;;;5001924;28;20183;-80
2021/04/13 04:54:16;;;;;;;2.77;1.67;;;1.50;99.90;;;;;;5018376;28;20204;-81
2021/04/13 04:56:42;;;;;;;2.83;1.90;;;1.50;99.90;;;;;;5001554;28;20191;-81
2021/04/13 04:59:08;;;;;;;3.07;2.40;;;1.60;99.90;;;;;;5003267;28;20203;-80
2021/04/13 05:01:34;;;;;;;4.63;2.17;;;1.70;99.90;;;;;;5002129;28;20187;-80
2021/04/13 05:03:59;;;;;;;2.40;2.00;;;1.70;99.90;;;;;;5018373;28;20223;-81
2021/04/13 05:06:26;;;;;;;2.47;2.20;;;1.70;99.90;;;;;;5003280;28;20183;-80
2021/04/13 05:08:54;;;;;;;3.17;2.53;;;1.80;99.90;;;;;;5001386;28;20301;-80
2021/04/13 05:11:22;;;;;;;2.47;1.87;;;1.90;99.90;;;;;;5001839;28;20187;-80
2021/04/13 05:13:48;;;;;;;1.53;1.40;;;1.80;99.90;;;;;;5001895;28;20187;-80
2021/04/13 05:16:13;;;;;;;2.60;2.03;;;1.80;99.90;;;;;;5001557;28;20215;-80
2021/04/13 05:18:39;;;;;;;2.80;2.50;;;1.80;99.90;;;;;;5003314;28;20223;-81
2021/04/13 05:21:05;;;;;;;2.50;2.00;;;1.90;99.90;;;;;;5017311;28;20195;-80
2021/04/13 05:23:31;;;;;;;2.37;2.07;;;1.90;99.90;;;;;;5001235;28;20205;-80
2021/04/13 05:25:57;;;;;;;4.40;2.10;;;2.00;99.90;;;;;;5000853;28;20737;-80
2021/04/13 05:28:22;;;;;;;2.27;2.00;;;2.20;99.90;;;;;;5001350;28;20416;-80
2021/04/13 05:30:50;;;;;;;6.23;2.37;;;2.30;99.90;;;;;;5001129;28;20186;-80
2021/04/13 05:33:17;;;;;;;4.13;2.20;;;2.40;99.90;;;;;;5001598;28;20211;-80
2021/04/13 05:35:42;;;;;;;3.17;1.93;;;2.40;99.90;;;;;;5000983;28;20211;-80
2021/04/13 05:38:19;;;;;;;1.97;1.80;;;2.50;99.90;;;;;;5002656;28;20191;-80
2021/04/13 05:40:45;;;;;;;3.33;2.27;;;2.40;99.90;;;;;;5000859;28;20598;-80
2021/04/13 05:43:12;;;;;;;2.67;2.10;;;2.50;99.90;;;;;;5001622;28;20401;-79
2021/04/13 05:45:41;;;;;;;2.57;2.20;;;2.60;99.90;;;;;;5001072;28;20222;-80
2021/04/13 05:48:08;;;;;;;2.77;2.43;;;2.80;99.90;;;;;;5001055;28;20184;-80
2021/04/13 05:50:35;;;;;;;2.20;2.00;;;2.80;99.90;;;;;;5000530;28;20845;-80
2021/04/13 05:53:01;;;;;;;3.87;2.27;;;3.00;99.90;;;;;;5002935;28;20229;-80
2021/04/13 05:55:30;;;;;;;2.77;1.97;;;3.00;99.90;;;;;;5001282;28;20685;-80
2021/04/13 05:58:00;;;;;;;5.33;1.83;;;3.00;99.90;;;;;;5002156;28;20180;-80
2021/04/13 06:00:26;;;;;;;1.50;1.40;;;3.00;99.90;;;;;;5017085;28;20568;-80
2021/04/13 06:02:53;;;;;;;2.60;1.83;;;3.10;99.90;;;;;;5001110;28;20926;-80
2021/04/13 06:05:23;;;;;;;1.87;1.60;;;3.10;99.90;;;;;;5000393;28;20242;-80
2021/04/13 06:07:49;;;;;;;2.07;1.87;;;3.20;99.90;;;;;;5002524;28;20194;-80
2021/04/13 06:10:16;;;;;;;2.50;2.00;;;3.30;99.90;;;;;;5000544;28;20214;-80
2021/04/13 06:12:42;;;;;;;2.47;2.27;;;3.40;99.90;;;;;;5001226;28;20183;-80
2021/04/13 06:15:12;;;;;;;2.47;1.97;;;3.50;99.90;;;;;;5001149;28;20633;-80
2021/04/13 06:17:37;;;;;;;2.20;1.97;;;3.40;99.90;;;;;;5001028;28;20180;-80
2021/04/13 06:20:03;;;;;;;2.73;2.00;;;3.50;99.90;;;;;;5000571;28;20594;-80
2021/04/13 06:22:29;;;;;;;5.43;2.77;;;3.40;99.90;;;;;;5000937;28;20526;-80
2021/04/13 06:24:54;;;;;;;2.93;2.10;;;3.60;99.90;;;;;;5004964;28;20195;-81
2021/04/13 06:27:20;;;;;;;2.70;1.93;;;3.60;99.90;;;;;;5012782;28;20261;-81
2021/04/13 06:29:46;;;;;;;2.43;1.90;;;3.70;99.90;;;;;;4998607;28;20204;-80
2021/04/13 06:32:11;;;;;;;2.77;2.20;;;3.70;99.90;;;;;;5000004;28;20245;-80
2021/04/13 06:34:37;;;;;;;2.37;1.77;;;3.80;99.90;;;;;;5000458;28;20404;-80
2021/04/13 06:37:06;;;;;;;2.20;2.00;;;4.10;99.90;;;;;;5004785;28;20187;-81
2021/04/13 06:39:34;;;;;;;2.93;2.20;;;4.30;99.90;;;;;;5004218;28;20210;-80
2021/04/13 06:42:15;;;;;;;2.93;2.20;;;4.40;99.90;;;;;;5003051;28;20631;-80
2021/04/13 06:45:02;;;;;;;2.10;1.80;;;4.50;99.90;;;;;;5020146;28;20203;-80
2021/04/13 06:48:03;;;;;;;2.27;2.07;;;4.80;99.90;;;;;;5004485;28;20198;-78
2021/04/13 06:50:46;;;;;;;2.47;1.67;;;5.20;99.90;;;;;;4986197;28;20282;-80
2021/04/13 06:53:50;;;;;;;3.03;1.70;;;5.30;99.90;;;;;;5021331;28;20203;-78
2021/04/13 06:56:24;;;;;;;2.17;1.60;;;5.30;99.90;;;;;;5024934;28;20288;-78
2021/04/13 06:59:27;;;;;;;1.93;1.77;;;5.50;99.90;;;;;;5008732;28;20576;-78
2021/04/13 07:01:57;;;;;;;1.57;1.47;;;5.50;99.90;;;;;;5008408;28;20179;-83
2021/04/13 07:04:48;;;;;;;1.97;1.77;;;5.30;99.90;;;;;;5007286;28;20207;-83
2021/04/13 07:07:23;;;;;;;1.73;1.50;;;5.30;99.90;;;;;;5008095;28;20565;-84
2021/04/13 07:10:03;;;;;;;2.90;1.90;;;5.40;99.90;;;;;;5023340;28;20688;-83
2021/04/13 07:12:37;;;;;;;1.73;1.27;;;5.60;99.90;;;;;;5008805;28;20547;-79
2021/04/13 07:15:26;;;;;;;1.10;1.00;;;5.50;99.90;;;;;;5007013;28;20314;-80
2021/04/13 07:18:28;;;;;;;2.20;1.37;;;5.50;99.90;;;;;;5007530;28;20182;-80
2021/04/13 07:21:01;;;;;;;1.63;1.43;;;5.70;99.90;;;;;;5023242;28;20202;-80
2021/04/13 07:23:42;;;;;;;2.60;1.30;;;5.70;99.90;;;;;;5007133;28;20654;-82
2021/04/13 07:26:18;;;;;;;1.33;1.23;;;5.80;99.90;;;;;;5008305;28;20183;-81
2021/04/13 07:29:08;;;;;;;3.23;1.60;;;6.00;99.90;;;;;;5007139;28;20214;-80
2021/04/13 07:31:43;;;;;;;1.27;1.17;;;6.30;99.90;;;;;;5007507;28;20284;-81
2021/04/13 07:34:09;;;;;;;1.30;1.07;;;6.40;99.90;;;;;;5009997;28;20187;-80
2021/04/13 07:36:55;;;;;;;2.10;1.10;;;6.30;99.90;;;;;;5009390;28;20258;-80
2021/04/13 07:39:23;;;;;;;2.07;1.27;;;6.30;99.90;;;;;;5010194;28;20207;-81
2021/04/13 07:41:59;;;;;;;0.80;0.70;;;6.50;99.90;;;;;;5010034;28;20180;-81
2021/04/13 07:45:01;;;;;;;4.50;1.77;;;6.50;99.90;;;;;;5009687;28;20768;-77
2021/04/13 07:48:02;;;;;;;2.90;1.77;;;6.40;99.90;;;;;;5023553;28;20195;-80
2021/04/13 07:51:04;;;;;;;1.40;1.20;;;6.80;99.90;;;;;;5008893;28;20597;-79
2021/04/13 07:53:52;;;;;;;1.47;1.03;;;6.80;99.90;;;;;;5007378;28;20190;-80
2021/04/13 07:56:32;;;;;;;1.07;0.70;;;6.70;99.90;;;;;;5007672;28;20708;-80
2021/04/13 07:59:14;;;;;;;1.20;0.70;;;6.90;99.90;;;;;;5008716;28;20673;-79
2021/04/13 08:01:39;;;;;;;1.87;1.30;;;7.00;99.90;;;;;;5008706;28;20171;-80
2021/04/13 08:04:05;;;;;;;2.10;1.40;;;7.00;99.90;;;;;;5023906;28;20240;-79
2021/04/13 08:06:34;;;;;;;1.97;1.23;;;6.90;99.90;;;;;;5006679;28;20859;-81
2021/04/13 08:09:25;;;;;;;6.07;1.43;;;6.80;99.90;;;;;;5006721;28;20260;-80
2021/04/13 08:12:11;;;;;;;1.53;1.30;;;6.90;99.90;;;;;;5006754;28;20188;-78
2021/04/13 08:14:40;;;;;;;1.70;1.60;;;7.00;99.90;;;;;;5007781;28;20215;-77
2021/04/13 08:17:21;;;;;;;1.17;1.07;;;6.70;99.90;;;;;;5008150;28;20179;-77
2021/04/13 08:20:09;;;;;;;1.73;1.07;;;6.50;99.90;;;;;;5006913;28;20391;-77
2021/04/13 08:23:11;;;;;;;1.17;0.80;;;6.30;99.90;;;;;;5003038;28;20179;-80
2021/04/13 08:25:48;;;;;;;2.10;1.90;;;6.50;99.90;;;;;;4998918;28;20191;-80
2021/04/13 08:28:35;;;;;;;1.37;0.80;;;7.00;99.90;;;;;;5018933;28;20198;-80
2021/04/13 08:34:29;;;;;;;3.47;0.90;;;8.00;99.90;;;;;;5004455;28;20672;-80
2021/04/13 08:37:33;;;;;;;1.87;1.40;;;8.20;99.90;;;;;;5002802;28;20182;-79
2021/04/13 08:40:07;;;;;;;2.03;1.17;;;8.00;99.90;;;;;;5003578;28;20391;-80
2021/04/13 08:42:57;;;;;;;2.00;0.83;;;7.60;99.90;;;;;;5002733;28;20205;-80
2021/04/13 08:45:32;;;;;;;2.40;0.80;;;7.50;99.90;;;;;;5018462;28;20202;-80
2021/04/13 08:48:17;;;;;;;0.90;0.60;;;8.00;99.90;;;;;;5003624;28;20956;-80
2021/04/13 08:50:52;;;;;;;0.70;0.70;;;8.30;99.90;;;;;;5001710;28;20191;-80
2021/04/13 08:53:39;;;;;;;1.00;0.73;;;8.10;99.90;;;;;;5002091;28;20191;-80
2021/04/13 08:56:20;;;;;;;1.10;0.80;;;8.10;99.90;;;;;;5001708;28;20215;-80
2021/04/13 08:58:55;;;;;;;0.90;0.67;;;7.90;99.90;;;;;;5001588;28;20204;-80
2021/04/13 09:01:38;;;;;;;0.70;0.70;;;7.70;99.90;;;;;;5003633;28;20245;-80
2021/04/13 09:04:08;;;;;;;1.03;0.87;;;8.00;99.90;;;;;;5002307;28;20191;-80
2021/04/13 09:06:46;;;;;;;0.63;0.60;;;8.60;99.90;;;;;;5003115;28;20184;-79
2021/04/13 09:09:36;;;;;;;2.87;1.37;;;8.80;99.90;;;;;;5021979;28;20482;-80
2021/04/13 09:12:25;;;;;;;1.40;0.73;;;8.50;99.90;;;;;;5017607;28;20559;-80
2021/04/13 09:15:09;;;;;;;1.73;1.00;;;8.00;99.90;;;;;;5017328;28;20637;-80
2021/04/13 09:17:49;;;;;;;0.90;0.90;;;8.00;99.90;;;;;;5001514;28;20187;-80
2021/04/13 09:20:22;;;;;;;1.37;0.87;;;8.10;99.90;;;;;;5000930;28;20728;-81
2021/04/13 09:22:53;;;;;;;1.23;1.10;;;8.40;99.90;;;;;;5001540;28;20206;-81
2021/04/13 09:25:33;;;;;;;0.80;0.80;;;8.70;99.90;;;;;;5001421;28;20411;-81
2021/04/13 09:28:10;;;;;;;1.20;1.10;;;8.80;99.90;;;;;;5001892;28;20572;-81
2021/04/13 09:30:40;;;;;;;2.47;1.37;;;9.10;99.90;;;;;;5000983;28;20186;-81
2021/04/13 09:33:07;;;;;;;4.90;1.47;;;8.90;99.90;;;;;;5002884;28;20215;-81
2021/04/13 09:35:36;;;;;;;0.80;0.80;;;8.70;99.90;;;;;;5002192;28;20230;-81
2021/04/13 09:38:40;;;;;;;1.10;1.00;;;8.50;99.90;;;;;;5006184;28;20275;-81
2021/04/13 09:41:57;;;;;;;4.00;1.77;;;8.50;99.90;;;;;;5003566;28;20242;-81
2021/04/13 09:44:59;;;;;;;0.83;0.80;;;9.00;99.90;;;;;;4991556;28;20204;-81
2021/04/13 09:48:18;;;;;;;1.30;1.20;;;9.80;99.90;;;;;;5003812;28;20564;-81
2021/04/13 09:50:52;;;;;;;0.80;0.60;;;10.30;99.90;;;;;;4981868;28;20663;-82
2021/04/13 09:53:44;;;;;;;0.60;0.60;;;9.80;99.90;;;;;;5002244;28;20495;-81
2021/04/13 09:56:21;;;;;;;1.47;0.80;;;9.20;99.90;;;;;;5002477;28;20215;-82
2021/04/13 09:58:59;;;;;;;1.30;0.70;;;8.70;99.90;;;;;;5019925;28;20787;-81
2021/04/13 10:01:33;;;;;;;2.00;1.10;;;8.50;99.90;;;;;;5003581;28;20819;-81
2021/04/13 10:04:11;;;;;;;3.70;0.90;;;8.60;99.90;;;;;;5001159;28;20187;-81
2021/04/13 10:06:41;;;;;;;1.73;1.10;;;8.80;99.90;;;;;;5002961;28;20226;-80
2021/04/13 10:09:17;;;;;;;0.60;0.53;;;9.00;99.90;;;;;;5001833;28;20203;-81
2021/04/13 10:12:26;;;;;;;1.30;1.20;;;9.30;99.90;;;;;;5009618;28;20190;-81
2021/04/13 10:15:01;;;;;;;1.17;0.83;;;9.60;99.90;;;;;;5009347;28;20214;-80
2021/04/13 10:17:48;;;;;;;0.87;0.87;;;9.50;99.90;;;;;;5024984;28;20670;-81
2021/04/13 10:20:34;;;;;;;1.70;1.07;;;9.30;99.90;;;;;;5009885;28;20203;-82
2021/04/13 10:23:15;;;;;;;1.27;1.07;;;9.10;99.90;;;;;;5025365;28;20277;-81
2021/04/13 10:25:55;;;;;;;0.77;0.77;;;9.00;99.90;;;;;;5008935;28;20557;-81
2021/04/13 10:28:52;;;;;;;2.37;1.17;;;9.00;99.90;;;;;;5008851;28;20234;-81
2021/04/13 10:31:43;;;;;;;3.33;0.97;;;9.40;99.90;;;;;;5026708;28;20571;-81
2021/04/13 10:34:46;;;;;;;2.00;0.77;;;9.90;99.90;;;;;;5027512;28;20290;-81
2021/04/13 10:37:50;;;;;;;0.80;0.80;;;10.10;99.90;;;;;;5011249;28;20183;-81
2021/04/13 10:40:58;;;;;;;1.23;0.60;;;10.20;99.90;;;;;;5014286;28;20210;-81
2021/04/13 10:43:45;;;;;;;1.53;0.97;;;10.40;99.90;;;;;;5010885;28;20661;-81
2021/04/13 10:46:29;;;;;;;1.53;0.87;;;10.50;99.90;;;;;;5026286;28;20194;-81
2021/04/13 10:49:39;;;;;;;6.33;1.27;;;10.30;99.90;;;;;;5021381;28;20207;-81
2021/04/13 10:52:18;;;;;;;0.77;0.77;;;10.20;99.90;;;;;;5009525;28;20203;-82
2021/04/13 10:55:22;;;;;;;0.30;0.30;;;10.00;99.90;;;;;;5012743;28;20735;-81
2021/04/13 10:58:06;;;;;;;1.00;0.80;;;9.80;99.90;;;;;;5007060;28;20199;-80
2021/04/13 11:00:55;;;;;;;4.83;1.23;;;9.90;99.90;;;;;;5011806;28;20281;-81
2021/04/13 11:03:55;;;;;;;1.47;0.67;;;10.10;99.90;;;;;;5010963;28;20188;-80
2021/04/13 11:06:45;;;;;;;1.90;1.00;;;9.80;99.90;;;;;;5011213;28;20183;-81
2021/04/13 11:09:53;;;;;;;0.57;0.40;;;9.50;99.90;;;;;;5027529;28;20211;-81
2021/04/13 11:13:09;;;;;;;0.73;0.60;;;9.40;99.90;;;;;;5009923;28;20182;-81
2021/04/13 11:16:06;;;;;;;2.77;0.47;;;9.60;99.90;;;;;;5011617;28;20211;-81
2021/04/13 11:18:51;;;;;;;0.60;0.40;;;9.70;99.90;;;;;;5016210;28;20588;-82
2021/04/13 11:21:32;;;;;;;0.93;0.80;;;10.00;99.90;;;;;;5012204;28;20175;-81
2021/04/13 11:24:32;;;;;;;1.33;1.00;;;10.30;99.90;;;;;;5003247;28;20650;-80
2021/04/13 11:27:38;;;;;;;4.63;0.90;;;10.40;99.90;;;;;;5003332;28;20466;-81
2021/04/13 11:30:08;;;;;;;1.50;0.90;;;10.60;99.90;;;;;;5020233;28;20218;-82
2021/04/13 11:33:06;;;;;;;0.57;0.40;;;10.80;99.90;;;;;;5004431;28;20211;-81
2021/04/13 11:35:44;;;;;;;0.53;0.47;;;11.20;99.90;;;;;;5001210;28;20696;-83
2021/04/13 11:38:44;;;;;;;1.40;0.70;;;11.50;99.90;;;;;;5005252;28;20653;-80
2021/04/13 11:41:24;;;;;;;0.63;0.43;;;11.70;99.90;;;;;;5008960;28;20358;-82
2021/04/13 11:43:55;;;;;;;1.03;0.80;;;11.70;99.90;;;;;;5022883;28;20172;-77
2021/04/13 11:46:40;;;;;;;0.50;0.43;;;11.30;99.90;;;;;;5008810;28;20219;-81
2021/04/13 11:49:42;;;;;;;2.50;0.83;;;11.20;99.90;;;;;;5007685;28;20207;-82
2021/04/13 11:52:31;;;;;;;1.10;0.50;;;11.50;99.90;;;;;;5009688;28;20179;-82
2021/04/13 11:54:57;;;;;;;1.23;0.50;;;11.60;99.90;;;;;;5022768;28;20207;-81
2021/04/13 11:57:26;;;;;;;0.80;0.40;;;11.30;99.90;;;;;;5006328;28;20186;-80
2021/04/13 12:00:10;;;;;;;1.30;0.50;;;11.10;99.90;;;;;;5006698;28;20195;-81
2021/04/13 12:02:38;;;;;;;1.20;0.60;;;11.20;99.90;;;;;;5024369;28;20184;-81
2021/04/13 12:05:05;;;;;;;2.30;1.10;;;11.20;99.90;;;;;;5006190;28;20578;-80
2021/04/13 12:07:46;;;;;;;1.67;0.63;;;11.20;99.90;;;;;;5006486;28;20202;-78
2021/04/13 12:10:26;;;;;;;1.33;0.57;;;10.90;99.90;;;;;;5006537;28;20246;-80
2021/04/13 12:12:51;;;;;;;0.40;0.40;;;10.70;99.90;;;;;;5023800;28;20179;-82
2021/04/13 12:15:20;;;;;;;1.30;0.70;;;10.90;99.90;;;;;;5006149;28;20219;-82
2021/04/13 12:17:51;;;;;;;0.80;0.43;;;11.00;99.90;;;;;;5006216;28;20187;-82
2021/04/13 12:20:30;;;;;;;3.67;0.83;;;10.90;99.90;;;;;;5008183;28;20206;-83
2021/04/13 12:22:57;;;;;;;0.63;0.60;;;10.90;99.90;;;;;;5022850;28;20175;-84
2021/04/13 12:26:01;;;;;;;0.90;0.50;;;10.90;99.90;;;;;;5008083;28;20193;-84
2021/04/13 12:28:30;;;;;;;0.20;0.20;;;10.60;99.90;;;;;;5007325;28;20214;-82
2021/04/13 12:31:03;;;;;;;0.40;0.40;;;9.20;99.90;;;;;;5007031;28;20204;-78
2021/04/13 12:33:29;;;;;;;0.43;0.40;;;8.50;99.90;;;;;;5022030;28;20206;-81
2021/04/13 12:35:58;;;;;;;0.87;0.40;;;8.20;99.90;;;;;;5005926;28;20203;-80
2021/04/13 12:38:41;;;;;;;0.10;0.10;;;7.60;99.90;;;;;;5006582;28;20239;-79
2021/04/13 12:41:19;;;;;;;0.10;0.10;;;7.10;99.90;;;;;;5006152;28;20176;-81
2021/04/13 12:44:01;;;;;;;1.73;0.30;;;6.80;99.90;;;;;;5005644;28;20695;-77
2021/04/13 12:46:33;;;;;;;2.70;0.90;;;6.50;99.90;;;;;;5005802;28;20226;-80
2021/04/13 12:49:10;;;;;;;0.50;0.40;;;6.10;99.90;;;;;;5021506;28;20314;-80
2021/04/13 12:51:58;;;;;;;0.20;0.20;;;6.00;99.90;;;;;;5006672;28;20662;-80
2021/04/13 12:54:39;;;;;;;0.73;0.40;;;6.10;99.90;;;;;;5007098;28;20176;-79
2021/04/13 12:57:06;;;;;;;0.53;0.53;;;6.50;99.90;;;;;;5005188;28;20184;-80
2021/04/13 12:59:34;;;;;;;0.87;0.50;;;6.70;99.90;;;;;;5022005;28;20200;-80
2021/04/13 13:02:00;;;;;;;0.33;0.33;;;6.60;99.90;;;;;;5006390;28;20212;-80
2021/04/13 13:04:41;;;;;;;0.30;0.30;;;6.60;99.90;;;;;;5021939;28;20184;-80
2021/04/13 13:07:19;;;;;;;0.30;0.20;;;7.00;99.90;;;;;;5004735;28;20184;-81
2021/04/13 13:09:44;;;;;;;0.40;0.40;;;7.10;99.90;;;;;;5006569;28;20234;-80
2021/04/13 13:12:18;;;;;;;0.43;0.43;;;7.30;99.90;;;;;;5004904;28;20218;-81
2021/04/13 13:14:46;;;;;;;0.63;0.63;;;7.60;99.90;;;;;;5005292;28;20222;-81
2021/04/13 13:17:45;;;;;;;0.80;0.60;;;7.90;99.90;;;;;;5004635;28;20183;-80
2021/04/13 13:20:28;;;;;;;0.50;0.30;;;8.00;99.90;;;;;;5005256;28;20206;-80
2021/04/13 13:22:54;;;;;;;1.30;0.50;;;8.20;99.90;;;;;;5008348;28;20172;-80
2021/04/13 13:25:22;;;;;;;0.60;0.47;;;8.40;99.90;;;;;;5006591;28;20190;-80
2021/04/13 13:27:48;;;;;;;0.90;0.80;;;8.50;99.90;;;;;;5004633;28;20278;-81
2021/04/13 13:30:16;;;;;;;1.03;0.60;;;8.80;99.90;;;;;;5005324;28;20294;-82
2021/04/13 13:32:42;;;;;;;0.70;0.57;;;9.00;99.90;;;;;;5004939;28;20234;-81
2021/04/13 13:35:13;;;;;;;0.40;0.40;;;9.50;99.90;;;;;;5004572;28;20704;-81
2021/04/13 13:37:43;;;;;;;1.53;0.60;;;9.80;99.90;;;;;;5004425;28;20172;-81
2021/04/13 13:40:17;;;;;;;0.93;0.50;;;10.00;99.90;;;;;;5011351;28;20210;-81
2021/04/13 13:42:43;;;;;;;0.53;0.40;;;10.10;99.90;;;;;;5010656;28;20172;-81
2021/04/13 13:45:29;;;;;;;0.90;0.73;;;10.40;99.90;;;;;;5004387;28;20187;-81
2021/04/13 13:47:56;;;;;;;0.60;0.60;;;10.80;99.90;;;;;;5020987;28;20270;-78
2021/04/13 13:50:37;;;;;;;0.40;0.40;;;11.10;99.90;;;;;;5004828;28;20184;-77
2021/04/13 13:53:15;;;;;;;2.60;0.83;;;11.10;99.90;;;;;;5003012;28;20194;-81
2021/04/13 13:55:41;;;;;;;1.17;0.83;;;11.10;99.90;;;;;;5004894;28;20324;-81
2021/04/13 13:58:23;;;;;;;0.50;0.33;;;10.60;99.90;;;;;;5002012;28;20934;-81